Time;durP1;ratioP1;P1;durP2;ratioP2;P2;SDS_P1;SDS_P2;PMS_P1;PMS_P2;Temp;Humidity;BMP_temperature;BMP_pressure;BME280_temperature;BME280_humidity;BME280_pressure;Samples;Min_cycle;Max_cycle;Signal;HPM_P1;HPM_P2
2024/02/01 00:00:22;;;;;;;11.37;4.37;;;3.40;99.90;;;;;;5028751;28;20199;-60
2024/02/01 00:02:47;;;;;;;9.37;4.10;;;3.50;99.90;;;;;;5021679;28;20188;-60
2024/02/01 00:05:13;;;;;;;9.60;4.10;;;3.70;99.90;;;;;;5021129;28;20195;-59
2024/02/01 00:07:38;;;;;;;13.97;5.07;;;3.80;99.90;;;;;;5023890;28;20698;-60
2024/02/01 00:10:05;;;;;;;14.17;4.50;;;3.90;99.90;;;;;;5032825;28;20295;-59
2024/02/01 00:12:30;;;;;;;9.67;4.30;;;4.00;99.90;;;;;;5043050;28;20179;-59
2024/02/01 00:14:56;;;;;;;10.33;4.13;;;4.10;99.90;;;;;;5034124;28;20600;-59
2024/02/01 00:17:21;;;;;;;7.27;4.17;;;4.10;99.90;;;;;;5029780;28;20184;-59
2024/02/01 00:19:47;;;;;;;9.63;3.63;;;4.20;99.90;;;;;;5024827;28;20261;-59
2024/02/01 00:22:13;;;;;;;8.33;3.53;;;4.20;99.90;;;;;;5041386;28;20613;-59
2024/02/01 00:24:38;;;;;;;9.63;3.97;;;4.30;99.90;;;;;;5020805;28;20188;-60
2024/02/01 00:27:04;;;;;;;14.83;4.97;;;4.40;99.90;;;;;;5043281;28;20205;-60
2024/02/01 00:29:30;;;;;;;9.20;4.37;;;4.40;99.90;;;;;;5034834;28;20705;-59
2024/02/01 00:31:55;;;;;;;10.20;4.40;;;4.50;99.90;;;;;;5047334;28;20234;-59
2024/02/01 00:34:21;;;;;;;11.90;5.20;;;4.60;99.90;;;;;;5039596;28;20180;-60
2024/02/01 00:36:47;;;;;;;11.23;5.27;;;4.60;99.90;;;;;;5044792;28;20185;-59
2024/02/01 00:39:13;;;;;;;15.50;5.17;;;4.70;99.90;;;;;;5012427;28;20206;-59
2024/02/01 00:41:38;;;;;;;11.10;5.20;;;4.80;99.90;;;;;;5042677;28;20179;-59
2024/02/01 00:44:04;;;;;;;9.70;4.63;;;4.80;99.90;;;;;;5023331;28;20208;-59
2024/02/01 00:46:29;;;;;;;9.10;4.97;;;4.90;99.90;;;;;;5039464;28;20191;-58
2024/02/01 00:48:55;;;;;;;10.87;5.17;;;4.90;99.90;;;;;;5051992;28;20245;-59
2024/02/01 00:51:21;;;;;;;12.10;4.97;;;4.90;99.90;;;;;;5042982;28;20783;-59
2024/02/01 00:53:46;;;;;;;10.03;4.80;;;4.90;99.90;;;;;;5036303;28;20195;-59
2024/02/01 00:56:12;;;;;;;9.43;4.40;;;5.00;99.90;;;;;;5027046;28;20573;-60
2024/02/01 00:58:37;;;;;;;19.07;6.20;;;5.00;99.90;;;;;;5045464;28;20204;-59
2024/02/01 01:01:03;;;;;;;14.63;5.90;;;4.90;99.90;;;;;;5032572;28;20195;-59
2024/02/01 01:03:28;;;;;;;12.53;5.60;;;5.00;99.90;;;;;;5033650;28;20271;-57
2024/02/01 01:05:54;;;;;;;9.93;5.40;;;5.00;99.90;;;;;;5044318;28;20175;-59
2024/02/01 01:08:20;;;;;;;15.10;5.73;;;5.00;99.90;;;;;;5050983;28;20646;-59
2024/02/01 01:10:45;;;;;;;16.00;5.23;;;5.00;99.90;;;;;;5043332;28;20191;-60
2024/02/01 01:13:11;;;;;;;9.57;5.03;;;5.10;99.90;;;;;;5028727;28;20181;-59
2024/02/01 01:15:37;;;;;;;9.63;4.83;;;5.00;99.90;;;;;;5032819;28;20267;-59
2024/02/01 01:18:03;;;;;;;10.97;5.27;;;5.00;99.90;;;;;;5042284;28;20183;-56
2024/02/01 01:20:28;;;;;;;13.20;5.53;;;5.00;99.90;;;;;;5026589;28;20271;-56
2024/02/01 01:22:54;;;;;;;13.30;5.93;;;5.10;99.90;;;;;;5051472;28;20707;-59
2024/02/01 01:25:20;;;;;;;13.10;5.67;;;5.00;99.90;;;;;;5042433;28;20216;-59
2024/02/01 01:27:46;;;;;;;12.97;5.60;;;4.90;99.90;;;;;;5042949;28;20214;-58
2024/02/01 01:30:12;;;;;;;13.53;5.93;;;4.90;99.90;;;;;;5028207;28;20236;-59
2024/02/01 01:32:37;;;;;;;12.53;5.63;;;4.90;99.90;;;;;;5038499;28;20179;-59
2024/02/01 01:35:03;;;;;;;12.20;5.87;;;5.00;99.90;;;;;;5029112;28;20233;-57
2024/02/01 01:37:29;;;;;;;16.40;6.90;;;4.90;99.90;;;;;;5025763;28;20192;-56
2024/02/01 01:39:54;;;;;;;10.53;5.77;;;4.90;99.90;;;;;;5041198;28;20200;-55
2024/02/01 01:42:20;;;;;;;11.40;6.00;;;5.00;99.90;;;;;;5027654;28;20207;-56
2024/02/01 01:44:45;;;;;;;10.77;5.90;;;5.00;99.90;;;;;;5042967;28;20257;-57
2024/02/01 01:47:11;;;;;;;12.63;5.90;;;5.00;99.90;;;;;;5050237;28;20187;-56
2024/02/01 01:49:37;;;;;;;10.90;5.47;;;5.00;99.90;;;;;;5048115;28;20750;-52
2024/02/01 01:52:03;;;;;;;15.23;6.33;;;5.00;99.90;;;;;;5030766;28;20238;-58
2024/02/01 01:54:32;;;;;;;13.43;6.07;;;5.00;99.90;;;;;;5048542;28;20183;-56
2024/02/01 01:56:59;;;;;;;12.40;6.00;;;5.00;99.90;;;;;;5050398;28;20175;-56
2024/02/01 01:59:25;;;;;;;9.13;5.37;;;5.10;99.90;;;;;;5033099;28;20199;-56
2024/02/01 02:01:51;;;;;;;11.80;5.87;;;5.10;99.90;;;;;;5035106;28;20550;-54
2024/02/01 02:04:17;;;;;;;14.60;5.67;;;5.10;99.90;;;;;;5034618;28;20195;-58
2024/02/01 02:06:43;;;;;;;11.93;6.07;;;5.20;99.90;;;;;;5024976;28;20566;-55
2024/02/01 02:09:12;;;;;;;13.33;5.87;;;5.20;99.90;;;;;;5033928;28;20215;-59
2024/02/01 02:11:44;;;;;;;13.23;5.70;;;5.20;99.90;;;;;;5039506;28;20704;-54
2024/02/01 02:14:11;;;;;;;14.20;5.90;;;5.20;99.90;;;;;;5015285;28;20669;-56
2024/02/01 02:16:37;;;;;;;12.10;5.53;;;5.20;99.90;;;;;;5012619;28;20181;-57
2024/02/01 02:19:09;;;;;;;13.97;6.63;;;5.20;99.90;;;;;;5044572;28;20207;-57
2024/02/01 02:21:47;;;;;;;11.17;5.83;;;5.30;99.90;;;;;;5031655;28;20695;-55
2024/02/01 02:24:14;;;;;;;12.77;6.27;;;5.40;99.90;;;;;;5045967;28;20218;-57
2024/02/01 02:26:40;;;;;;;14.30;6.07;;;5.30;99.90;;;;;;5046959;28;20192;-55
2024/02/01 02:29:06;;;;;;;20.23;7.53;;;5.20;99.90;;;;;;5044686;28;20203;-56
2024/02/01 02:31:31;;;;;;;12.83;5.80;;;5.30;99.90;;;;;;5030618;28;20212;-59
2024/02/01 02:33:57;;;;;;;12.30;5.70;;;5.30;99.90;;;;;;5021140;28;20266;-58
2024/02/01 02:36:23;;;;;;;11.70;5.73;;;5.30;99.90;;;;;;5024801;28;20220;-52
2024/02/01 02:38:48;;;;;;;12.77;6.30;;;5.40;99.90;;;;;;5049835;28;20229;-55
2024/02/01 02:41:14;;;;;;;11.47;5.87;;;5.40;99.90;;;;;;5042383;28;20195;-56
2024/02/01 02:43:39;;;;;;;14.57;6.77;;;5.40;99.90;;;;;;5040906;28;20208;-58
2024/02/01 02:46:05;;;;;;;14.77;6.47;;;5.40;99.90;;;;;;5027004;28;20199;-56
2024/02/01 02:48:32;;;;;;;12.67;5.90;;;5.40;99.90;;;;;;5023140;28;20613;-56
2024/02/01 02:50:58;;;;;;;10.70;6.23;;;5.40;99.90;;;;;;5036182;28;20675;-52
2024/02/01 02:53:24;;;;;;;18.90;6.30;;;5.40;99.90;;;;;;5037837;28;20193;-56
2024/02/01 02:55:49;;;;;;;15.87;6.23;;;5.40;99.90;;;;;;5037419;28;20184;-56
2024/02/01 02:58:15;;;;;;;14.90;6.47;;;5.40;99.90;;;;;;5038116;28;20205;-54
2024/02/01 03:00:40;;;;;;;15.97;6.13;;;5.40;99.90;;;;;;5029683;28;20207;-56
2024/02/01 03:03:06;;;;;;;17.00;6.67;;;5.40;99.90;;;;;;5029858;28;20191;-55
2024/02/01 03:05:31;;;;;;;16.00;6.37;;;5.40;99.90;;;;;;5030984;28;20370;-54
2024/02/01 03:07:57;;;;;;;12.33;5.90;;;5.40;99.90;;;;;;5041316;28;20194;-53
2024/02/01 03:10:23;;;;;;;12.07;6.30;;;5.50;99.90;;;;;;5040684;28;20249;-54
2024/02/01 03:12:48;;;;;;;12.93;6.63;;;5.50;99.90;;;;;;5029761;28;20194;-53
2024/02/01 03:15:15;;;;;;;12.40;6.00;;;5.40;99.90;;;;;;5029775;28;20180;-55
2024/02/01 03:17:40;;;;;;;15.67;6.17;;;5.40;99.90;;;;;;5019885;28;20214;-58
2024/02/01 03:20:17;;;;;;;10.47;5.30;;;5.40;99.90;;;;;;5029868;28;20231;-53
2024/02/01 03:22:46;;;;;;;16.37;5.90;;;5.50;99.90;;;;;;5029478;28;20270;-58
2024/02/01 03:25:12;;;;;;;11.00;5.50;;;5.50;99.90;;;;;;5036532;28;20183;-54
2024/02/01 03:27:42;;;;;;;14.07;5.73;;;5.50;99.90;;;;;;5021779;28;20203;-56
2024/02/01 03:30:12;;;;;;;15.87;6.00;;;5.60;99.90;;;;;;5023015;28;20231;-55
2024/02/01 03:32:41;;;;;;;9.87;5.63;;;5.50;99.90;;;;;;5028406;28;20187;-60
2024/02/01 03:35:09;;;;;;;14.40;5.93;;;5.50;99.90;;;;;;5043865;28;20190;-57
2024/02/01 03:37:35;;;;;;;11.57;5.60;;;5.50;99.90;;;;;;5021755;28;20227;-60
2024/02/01 03:40:01;;;;;;;13.87;6.30;;;5.60;99.90;;;;;;5043120;28;20230;-58
2024/02/01 03:42:27;;;;;;;14.70;5.83;;;5.60;99.90;;;;;;5051158;28;20203;-57
2024/02/01 03:44:52;;;;;;;13.23;5.60;;;5.60;99.90;;;;;;5029479;28;20183;-58
2024/02/01 03:47:18;;;;;;;14.17;6.07;;;5.60;99.90;;;;;;5036240;28;20609;-58
2024/02/01 03:49:43;;;;;;;13.50;6.03;;;5.60;99.90;;;;;;5036310;28;20222;-58
2024/02/01 03:52:09;;;;;;;18.27;6.50;;;5.60;99.90;;;;;;5039925;28;20216;-60
2024/02/01 03:54:38;;;;;;;14.13;6.10;;;5.60;99.90;;;;;;5039667;28;20290;-58
2024/02/01 03:57:05;;;;;;;11.80;5.17;;;5.70;99.90;;;;;;5046728;28;20194;-59
2024/02/01 03:59:32;;;;;;;13.90;5.40;;;5.70;99.90;;;;;;5026855;28;20397;-60
2024/02/01 04:02:03;;;;;;;10.77;4.83;;;5.80;99.90;;;;;;5036155;28;20607;-59
2024/02/01 04:04:30;;;;;;;11.20;5.30;;;5.70;99.90;;;;;;5023525;28;20302;-59
2024/02/01 04:06:55;;;;;;;9.23;5.00;;;5.70;99.90;;;;;;5044069;28;20564;-60
2024/02/01 04:09:21;;;;;;;12.90;5.37;;;5.70;99.90;;;;;;5027591;28;20207;-59
2024/02/01 04:11:46;;;;;;;10.70;4.50;;;5.70;99.90;;;;;;5045274;28;20303;-59
2024/02/01 04:14:12;;;;;;;14.23;4.83;;;5.80;99.90;;;;;;5027409;28;20486;-59
2024/02/01 04:16:38;;;;;;;11.37;5.80;;;5.70;99.90;;;;;;5049238;28;20638;-59
2024/02/01 04:19:03;;;;;;;13.70;5.57;;;5.80;99.90;;;;;;5028904;28;20356;-60
2024/02/01 04:21:29;;;;;;;10.13;5.27;;;5.80;99.90;;;;;;5025680;28;20218;-58
2024/02/01 04:23:54;;;;;;;11.33;5.47;;;5.80;99.90;;;;;;5017381;28;20276;-60
2024/02/01 04:26:20;;;;;;;10.33;5.27;;;5.80;99.90;;;;;;5031914;28;20183;-57
2024/02/01 04:28:45;;;;;;;10.63;5.13;;;5.70;99.90;;;;;;5044454;28;20274;-60
2024/02/01 04:31:11;;;;;;;10.93;5.40;;;5.70;99.90;;;;;;5052181;28;20290;-58
2024/02/01 04:33:40;;;;;;;15.30;5.90;;;5.70;99.90;;;;;;5001587;28;20202;-58
2024/02/01 04:36:07;;;;;;;15.10;5.77;;;5.70;99.90;;;;;;5043781;28;20186;-60
2024/02/01 04:38:33;;;;;;;10.80;5.83;;;5.70;99.90;;;;;;5042034;28;20214;-59
2024/02/01 04:40:58;;;;;;;11.03;5.60;;;5.70;99.90;;;;;;5040438;28;20620;-57
2024/02/01 04:43:24;;;;;;;10.90;5.80;;;5.80;99.90;;;;;;5040218;28;20203;-59
2024/02/01 04:45:50;;;;;;;17.27;6.50;;;5.70;99.90;;;;;;5027330;28;20278;-59
2024/02/01 04:48:15;;;;;;;16.33;7.40;;;5.70;99.90;;;;;;5051954;28;20226;-60
2024/02/01 04:50:41;;;;;;;14.57;6.83;;;5.60;99.90;;;;;;5027283;28;20939;-60
2024/02/01 04:53:07;;;;;;;15.23;6.97;;;5.60;99.90;;;;;;5042473;28;20191;-59
2024/02/01 04:55:33;;;;;;;13.10;6.63;;;5.60;99.90;;;;;;5041141;28;20187;-60
2024/02/01 04:57:59;;;;;;;14.63;7.37;;;5.60;99.90;;;;;;5001080;28;20195;-58
2024/02/01 05:00:26;;;;;;;16.37;6.93;;;5.60;99.90;;;;;;5037056;28;20265;-60
2024/02/01 05:02:52;;;;;;;13.60;6.33;;;5.60;99.90;;;;;;5027879;28;20650;-59
2024/02/01 05:05:19;;;;;;;13.03;6.60;;;5.70;99.90;;;;;;5051502;28;20229;-59
2024/02/01 05:07:44;;;;;;;16.83;6.17;;;5.80;99.90;;;;;;5034541;28;20198;-60
2024/02/01 05:10:15;;;;;;;13.57;6.70;;;5.70;99.90;;;;;;5038194;28;20204;-60
2024/02/01 05:12:40;;;;;;;14.23;7.13;;;5.70;99.90;;;;;;5015429;28;20843;-59
2024/02/01 05:15:07;;;;;;;15.23;7.00;;;5.80;99.90;;;;;;5008132;28;20289;-59
2024/02/01 05:17:37;;;;;;;16.73;7.47;;;5.80;99.90;;;;;;5037729;28;20295;-59
2024/02/01 05:20:11;;;;;;;15.03;6.57;;;5.80;99.90;;;;;;5039407;28;20666;-59
2024/02/01 05:22:40;;;;;;;13.30;6.23;;;5.80;99.90;;;;;;5049314;28;20188;-58
2024/02/01 05:25:15;;;;;;;15.53;6.30;;;5.80;99.90;;;;;;5043480;28;20187;-60
2024/02/01 05:27:44;;;;;;;13.63;6.90;;;5.80;99.90;;;;;;5037687;28;20183;-60
2024/02/01 05:30:11;;;;;;;13.27;6.83;;;5.90;99.90;;;;;;5025155;28;20202;-59
2024/02/01 05:32:48;;;;;;;17.20;7.03;;;5.90;99.90;;;;;;5040810;28;20667;-60
2024/02/01 05:35:14;;;;;;;14.10;7.13;;;5.90;99.90;;;;;;5047501;28;20191;-60
2024/02/01 05:37:46;;;;;;;21.33;8.07;;;5.90;99.90;;;;;;5045358;28;20521;-61
2024/02/01 05:40:16;;;;;;;17.70;7.17;;;5.90;99.90;;;;;;5026341;28;20215;-60
2024/02/01 05:42:45;;;;;;;19.97;7.27;;;5.90;99.90;;;;;;5048576;28;20242;-60
2024/02/01 05:45:12;;;;;;;15.23;6.90;;;5.90;99.90;;;;;;5042814;28;20205;-59
2024/02/01 05:47:38;;;;;;;15.77;7.30;;;5.90;99.90;;;;;;5037596;28;20190;-60
2024/02/01 05:50:04;;;;;;;18.83;8.10;;;5.90;99.90;;;;;;5032446;28;20223;-60
2024/02/01 05:52:34;;;;;;;18.10;8.37;;;5.80;99.90;;;;;;5038877;28;20753;-60
2024/02/01 05:55:04;;;;;;;15.57;6.77;;;5.80;99.90;;;;;;5022505;28;20187;-61
2024/02/01 05:57:30;;;;;;;16.73;9.37;;;5.90;99.90;;;;;;5038389;28;20317;-60
2024/02/01 05:59:56;;;;;;;19.67;9.40;;;5.90;99.90;;;;;;5018062;28;20224;-58
2024/02/01 06:02:22;;;;;;;18.10;9.20;;;5.80;99.90;;;;;;5043683;28;20308;-59
2024/02/01 06:04:47;;;;;;;24.97;10.67;;;5.80;99.90;;;;;;5043126;28;20188;-60
2024/02/01 06:07:14;;;;;;;20.90;9.07;;;5.80;99.90;;;;;;5027193;28;20192;-60
2024/02/01 06:09:39;;;;;;;19.20;8.90;;;5.80;99.90;;;;;;5023298;28;20208;-60
2024/02/01 06:12:05;;;;;;;15.13;8.33;;;5.90;99.90;;;;;;5044619;28;20725;-60
2024/02/01 06:14:30;;;;;;;17.00;7.70;;;6.00;99.90;;;;;;5046959;28;20672;-59
2024/02/01 06:16:56;;;;;;;14.50;7.50;;;6.00;99.90;;;;;;5029776;28;20192;-60
2024/02/01 06:19:22;;;;;;;16.10;7.20;;;6.00;99.90;;;;;;5046935;28;20678;-60
2024/02/01 06:21:49;;;;;;;12.10;6.93;;;6.00;99.90;;;;;;5041989;28;20651;-60
2024/02/01 06:24:14;;;;;;;14.27;6.80;;;6.00;99.90;;;;;;5032528;28;20277;-60
2024/02/01 06:26:41;;;;;;;14.07;6.80;;;6.00;99.90;;;;;;5048647;28;20627;-60
2024/02/01 06:29:09;;;;;;;13.93;5.90;;;6.00;99.90;;;;;;5042000;28;20199;-59
2024/02/01 06:31:39;;;;;;;12.37;6.53;;;6.10;99.90;;;;;;5022030;28;20698;-60
2024/02/01 06:34:09;;;;;;;11.07;5.97;;;6.10;99.90;;;;;;5038520;28;20615;-59
2024/02/01 06:36:36;;;;;;;11.07;6.20;;;6.10;99.90;;;;;;5039452;28;20229;-59
2024/02/01 06:41:41;;;;;;;9.90;4.37;;;6.10;99.90;;;;;;5044189;28;20274;-59
2024/02/01 06:52:24;;;;;;;11.00;6.10;;;6.10;99.90;;;;;;5049899;28;20215;-58
2024/02/01 06:55:14;;;;;;;13.67;6.10;;;6.10;99.90;;;;;;5026648;28;20223;-59
2024/02/01 06:57:48;;;;;;;14.67;6.07;;;6.10;99.90;;;;;;5036606;28;20703;-59
2024/02/01 07:03:12;;;;;;;10.27;5.80;;;6.20;99.90;;;;;;5036913;28;20417;-58
2024/02/01 07:08:32;;;;;;;14.10;4.87;;;6.20;99.90;;;;;;5041333;28;20660;-59
2024/02/01 07:16:35;;;;;;;4.27;2.00;;;6.40;99.90;;;;;;5032760;28;20190;-59
2024/02/01 08:00:17;;;;;;;4.97;3.10;;;7.30;99.90;;;;;;5014376;28;20227;-59
2024/02/01 08:03:00;;;;;;;10.13;3.30;;;7.40;99.90;;;;;;5038105;28;20669;-52
2024/02/01 08:08:11;;;;;;;5.80;3.67;;;7.40;99.90;;;;;;5037685;28;20288;-56
2024/02/01 08:10:36;;;;;;;8.63;4.20;;;7.50;99.90;;;;;;5027631;28;20212;-53
2024/02/01 08:13:05;;;;;;;7.90;4.00;;;7.40;99.90;;;;;;5027209;28;20222;-54
2024/02/01 08:15:31;;;;;;;9.50;4.77;;;7.60;99.90;;;;;;5032158;28;20188;-57
2024/02/01 08:17:57;;;;;;;8.23;4.60;;;7.60;99.90;;;;;;5016479;28;20377;-57
2024/02/01 08:20:23;;;;;;;11.80;5.17;;;7.70;99.90;;;;;;5022368;28;20187;-57
2024/02/01 08:22:49;;;;;;;18.60;4.90;;;7.80;99.90;;;;;;5022824;28;20629;-56
2024/02/01 08:25:16;;;;;;;9.07;4.73;;;7.80;99.90;;;;;;5022033;28;20275;-57
2024/02/01 08:27:49;;;;;;;9.37;4.70;;;7.80;99.90;;;;;;5021448;28;20581;-58
2024/02/01 08:30:19;;;;;;;14.40;5.60;;;7.90;99.90;;;;;;5026290;28;20203;-50
2024/02/01 08:32:45;;;;;;;8.60;4.63;;;7.80;99.90;;;;;;5024465;28;20188;-57
2024/02/01 08:35:12;;;;;;;9.63;4.63;;;7.80;99.90;;;;;;5026167;28;20200;-56
2024/02/01 08:37:38;;;;;;;8.47;4.40;;;7.70;99.90;;;;;;5048794;28;20217;-53
2024/02/01 08:40:16;;;;;;;9.17;4.50;;;7.60;99.90;;;;;;5039812;28;20302;-55
2024/02/01 08:42:43;;;;;;;11.43;4.77;;;7.60;99.90;;;;;;5011397;28;20192;-53
2024/02/01 08:45:10;;;;;;;9.73;4.97;;;7.60;99.90;;;;;;5033841;28;20212;-53
2024/02/01 08:47:36;;;;;;;13.20;5.17;;;7.80;99.90;;;;;;5046911;28;20230;-54
2024/02/01 08:50:06;;;;;;;13.30;6.43;;;8.70;99.90;;;;;;5013194;28;20204;-57
2024/02/01 08:52:35;;;;;;;12.17;4.80;;;10.40;99.90;;;;;;5037012;28;20239;-53
2024/02/01 08:55:00;;;;;;;10.03;4.07;;;12.10;99.90;;;;;;5023982;28;20334;-60
2024/02/01 08:57:26;;;;;;;7.67;3.50;;;13.80;99.90;;;;;;5039711;28;20262;-60
2024/02/01 08:59:52;;;;;;;7.37;3.63;;;14.90;99.90;;;;;;5018839;28;20245;-57
2024/02/01 09:02:18;;;;;;;9.07;4.57;;;15.20;99.90;;;;;;5049087;28;20674;-57
2024/02/01 09:04:46;;;;;;;5.93;3.40;;;15.90;99.90;;;;;;5018341;28;20258;-59
2024/02/01 09:07:12;;;;;;;11.40;4.67;;;15.70;99.90;;;;;;5025159;28;20237;-60
2024/02/01 09:09:39;;;;;;;9.23;3.47;;;15.20;99.90;;;;;;5040694;28;20659;-59
2024/02/01 09:12:05;;;;;;;10.77;4.60;;;14.50;99.90;;;;;;5040016;28;20611;-57
2024/02/01 09:14:34;;;;;;;9.23;3.87;;;14.40;99.90;;;;;;5040236;28;20184;-56
2024/02/01 09:16:59;;;;;;;12.00;4.17;;;14.30;99.90;;;;;;5028055;28;20266;-54
2024/02/01 09:19:25;;;;;;;10.53;5.90;;;13.70;99.90;;;;;;5050431;28;20812;-56
2024/02/01 09:21:51;;;;;;;14.73;7.63;;;13.40;99.90;;;;;;5026024;28;20210;-53
2024/02/01 09:24:20;;;;;;;12.00;6.13;;;13.30;99.90;;;;;;5035688;28;20230;-54
2024/02/01 09:26:46;;;;;;;16.87;7.40;;;13.10;99.90;;;;;;5042780;28;20188;-53
2024/02/01 09:29:12;;;;;;;15.93;6.90;;;12.80;99.90;;;;;;5028637;28;20651;-51
2024/02/01 09:31:39;;;;;;;23.33;9.93;;;12.40;99.90;;;;;;5048639;28;20200;-57
2024/02/01 09:34:05;;;;;;;9.80;4.43;;;12.30;99.90;;;;;;5039164;28;20876;-53
2024/02/01 09:36:31;;;;;;;10.93;5.50;;;11.80;99.90;;;;;;5010777;28;20189;-53
2024/02/01 09:38:56;;;;;;;10.53;4.90;;;11.70;99.90;;;;;;5034430;28;20267;-52
2024/02/01 09:41:22;;;;;;;9.93;4.70;;;11.80;99.90;;;;;;5034388;28;20260;-56
2024/02/01 09:43:52;;;;;;;7.10;3.60;;;12.00;99.90;;;;;;5034093;28;20194;-56
2024/02/01 09:46:19;;;;;;;7.70;3.70;;;11.80;99.90;;;;;;5025884;28;20262;-51
2024/02/01 09:48:45;;;;;;;8.27;3.60;;;11.60;99.90;;;;;;5022876;28;20297;-54
2024/02/01 09:51:17;;;;;;;10.23;3.90;;;11.30;99.90;;;;;;5036848;28;20211;-50
2024/02/01 09:53:50;;;;;;;10.37;4.27;;;10.90;99.90;;;;;;5024960;28;20211;-54
2024/02/01 09:56:16;;;;;;;8.97;3.23;;;11.00;99.90;;;;;;5033538;28;20276;-52
2024/02/01 09:58:43;;;;;;;7.83;3.77;;;11.10;99.90;;;;;;5037798;28;20286;-55
2024/02/01 10:01:12;;;;;;;7.47;3.63;;;11.20;99.90;;;;;;5044010;28;20191;-55
2024/02/01 10:03:41;;;;;;;12.87;4.47;;;10.80;99.90;;;;;;5024450;28;20187;-57
2024/02/01 10:06:08;;;;;;;8.80;4.10;;;10.80;99.90;;;;;;5040893;28;20587;-52
2024/02/01 10:08:36;;;;;;;7.40;3.90;;;11.00;99.90;;;;;;5048273;28;20199;-53
2024/02/01 10:11:06;;;;;;;8.43;4.50;;;11.10;99.90;;;;;;5029384;28;20196;-52
2024/02/01 10:13:36;;;;;;;11.43;4.60;;;11.40;99.90;;;;;;5039011;28;20198;-52
2024/02/01 10:16:02;;;;;;;9.43;5.33;;;11.90;99.90;;;;;;5048827;28;20666;-56
2024/02/01 10:18:27;;;;;;;9.97;5.07;;;11.90;99.90;;;;;;5024053;28;20266;-54
2024/02/01 10:20:54;;;;;;;10.73;4.83;;;12.10;99.90;;;;;;5009693;28;20252;-54
2024/02/01 10:23:20;;;;;;;10.50;4.70;;;11.70;99.90;;;;;;5026338;28;20299;-55
2024/02/01 10:25:56;;;;;;;14.87;5.63;;;11.30;99.90;;;;;;5047441;28;20269;-52
2024/02/01 10:28:25;;;;;;;13.27;4.97;;;10.70;99.90;;;;;;5049326;28;20212;-52
2024/02/01 10:30:52;;;;;;;11.07;5.60;;;10.40;99.90;;;;;;5045769;28;20206;-52
2024/02/01 10:33:26;;;;;;;12.77;5.30;;;10.10;99.90;;;;;;5027826;28;20662;-55
2024/02/01 10:35:53;;;;;;;13.83;5.77;;;9.90;99.90;;;;;;5017539;28;20175;-55
2024/02/01 10:38:23;;;;;;;14.30;6.57;;;9.50;99.90;;;;;;5040620;28;20229;-55
2024/02/01 10:40:59;;;;;;;14.90;6.47;;;9.30;99.90;;;;;;5038989;28;20662;-51
2024/02/01 10:43:26;;;;;;;18.73;6.57;;;9.10;99.90;;;;;;5039279;28;20206;-57
2024/02/01 10:46:06;;;;;;;15.37;5.93;;;8.90;99.90;;;;;;5019265;28;20229;-54
2024/02/01 10:49:06;;;;;;;16.10;5.87;;;8.60;99.90;;;;;;5034990;28;20202;-52
2024/02/01 10:51:33;;;;;;;15.77;6.00;;;8.70;99.90;;;;;;5041546;28;20207;-53
2024/02/01 10:54:01;;;;;;;18.30;6.50;;;8.60;99.90;;;;;;5029835;28;20180;-54
2024/02/01 10:56:29;;;;;;;14.53;6.07;;;9.00;99.90;;;;;;5041335;28;20233;-54
2024/02/01 10:58:59;;;;;;;14.17;6.47;;;9.10;99.90;;;;;;5021488;28;20207;-57
2024/02/01 11:01:26;;;;;;;11.87;5.63;;;9.40;99.90;;;;;;5037616;28;20659;-58
2024/02/01 11:03:59;;;;;;;13.27;5.37;;;9.50;99.90;;;;;;5025801;28;20617;-57
2024/02/01 11:06:26;;;;;;;15.67;5.60;;;9.50;99.90;;;;;;5024675;28;20183;-57
2024/02/01 11:08:53;;;;;;;13.10;5.40;;;9.60;99.90;;;;;;5020581;28;20203;-56
2024/02/01 11:11:40;;;;;;;13.60;4.73;;;9.80;99.90;;;;;;5044551;28;20261;-57
2024/02/01 11:14:14;;;;;;;10.53;3.67;;;10.10;99.90;;;;;;5022740;28;20187;-58
2024/02/01 11:16:40;;;;;;;7.27;3.87;;;10.10;99.90;;;;;;5029883;28;20178;-59
2024/02/01 11:19:22;;;;;;;11.33;4.00;;;10.00;99.90;;;;;;5034865;28;20717;-54
2024/02/01 11:21:49;;;;;;;10.30;4.00;;;9.90;99.90;;;;;;5028788;28;20491;-59
2024/02/01 11:24:25;;;;;;;10.53;3.67;;;10.00;99.90;;;;;;5043387;28;20190;-58
2024/02/01 11:26:57;;;;;;;6.03;2.30;;;9.90;99.90;;;;;;5048075;28;20614;-57
2024/02/01 11:29:24;;;;;;;12.20;2.90;;;9.50;99.90;;;;;;5036531;28;20203;-59
2024/02/01 11:31:56;;;;;;;4.47;2.07;;;9.30;99.90;;;;;;5032347;28;20790;-58
2024/02/01 11:34:25;;;;;;;7.73;2.30;;;9.20;99.90;;;;;;5032160;28;20197;-55
2024/02/01 11:36:52;;;;;;;7.33;2.20;;;9.30;99.90;;;;;;5015485;28;20225;-52
2024/02/01 11:39:17;;;;;;;8.17;2.30;;;9.40;99.90;;;;;;5039806;28;20229;-56
2024/02/01 11:41:46;;;;;;;6.77;2.40;;;9.30;99.90;;;;;;5035154;28;20225;-53
2024/02/01 11:44:13;;;;;;;9.00;3.27;;;9.40;99.90;;;;;;5036802;28;20198;-55
2024/02/01 11:46:45;;;;;;;5.83;2.23;;;9.60;99.90;;;;;;5035788;28;20211;-55
2024/02/01 11:49:21;;;;;;;13.40;2.63;;;9.80;99.90;;;;;;5024802;28;20216;-53
2024/02/01 11:52:13;;;;;;;12.47;2.63;;;10.00;99.90;;;;;;5030944;28;20233;-56
2024/02/01 11:54:46;;;;;;;7.60;2.30;;;10.20;99.90;;;;;;5021933;28;20192;-57
2024/02/01 11:57:19;;;;;;;5.57;2.03;;;10.80;99.90;;;;;;5042445;28;20183;-57
2024/02/01 11:59:45;;;;;;;6.37;2.00;;;11.10;99.90;;;;;;5026803;28;20208;-56
2024/02/01 12:02:11;;;;;;;8.53;2.00;;;11.50;99.90;;;;;;5031604;28;20670;-57
2024/02/01 12:04:38;;;;;;;10.87;2.17;;;11.90;99.90;;;;;;5022416;28;20200;-54
2024/02/01 12:07:05;;;;;;;9.23;2.07;;;12.40;99.90;;;;;;5025200;28;20199;-58
2024/02/01 12:09:38;;;;;;;9.70;2.20;;;12.80;99.90;;;;;;5015488;28;20654;-57
2024/02/01 12:12:04;;;;;;;7.90;2.10;;;13.50;99.90;;;;;;5036781;28;20199;-57
2024/02/01 12:14:30;;;;;;;7.83;1.63;;;13.80;99.90;;;;;;5051786;28;20251;-56
2024/02/01 12:16:58;;;;;;;8.10;1.90;;;13.90;99.90;;;;;;5051327;28;20187;-57
2024/02/01 12:19:24;;;;;;;8.13;2.23;;;13.90;99.90;;;;;;5043882;28;20200;-56
2024/02/01 12:21:55;;;;;;;8.40;2.10;;;14.30;99.90;;;;;;5051183;28;20237;-57
2024/02/01 12:24:26;;;;;;;10.93;2.57;;;14.20;99.90;;;;;;5047597;28;20678;-58
2024/02/01 12:26:52;;;;;;;7.23;2.10;;;13.80;99.90;;;;;;5015999;28;20183;-58
2024/02/01 12:29:17;;;;;;;14.97;4.37;;;13.90;99.90;;;;;;5037466;28;20571;-58
2024/02/01 12:31:43;;;;;;;6.37;2.80;;;13.60;99.90;;;;;;5032764;28;20211;-58
2024/02/01 12:34:13;;;;;;;11.40;2.80;;;13.40;99.90;;;;;;5051436;28;20183;-59
2024/02/01 12:36:39;;;;;;;7.27;2.00;;;13.30;99.90;;;;;;5034494;28;20270;-56
2024/02/01 12:39:05;;;;;;;8.33;2.10;;;13.00;99.90;;;;;;5051690;28;20215;-59
2024/02/01 12:41:34;;;;;;;11.90;3.13;;;12.60;99.90;;;;;;5034821;28;20261;-58
2024/02/01 12:44:01;;;;;;;15.03;4.17;;;12.20;99.90;;;;;;5034178;28;20207;-54
2024/02/01 12:46:27;;;;;;;17.40;3.53;;;11.50;99.90;;;;;;5027293;28;20199;-57
2024/02/01 12:48:53;;;;;;;12.80;3.37;;;11.30;99.90;;;;;;5031762;28;20679;-56
2024/02/01 12:51:26;;;;;;;10.33;2.03;;;11.40;99.90;;;;;;5030095;28;20233;-59
2024/02/01 12:53:59;;;;;;;14.50;2.70;;;11.30;99.90;;;;;;5011223;28;20188;-55
2024/02/01 12:56:25;;;;;;;14.73;2.33;;;11.30;99.90;;;;;;5043217;28;20537;-56
2024/02/01 12:58:52;;;;;;;10.23;2.77;;;11.40;99.90;;;;;;5042678;28;20294;-59
2024/02/01 13:01:18;;;;;;;10.13;1.87;;;11.30;99.90;;;;;;5042829;28;20503;-57
2024/02/01 13:03:45;;;;;;;13.83;2.50;;;11.30;99.90;;;;;;5042039;28;20195;-57
2024/02/01 13:06:11;;;;;;;20.17;3.07;;;11.20;99.90;;;;;;5041770;28;20237;-57
2024/02/01 13:08:40;;;;;;;13.87;2.57;;;11.20;99.90;;;;;;5034317;28;20306;-60
2024/02/01 13:11:10;;;;;;;10.43;2.17;;;11.10;99.90;;;;;;5050843;28;20218;-54
2024/02/01 13:13:36;;;;;;;19.73;2.83;;;11.00;99.90;;;;;;5025222;28;20173;-56
2024/02/01 13:16:02;;;;;;;12.73;2.50;;;11.00;99.90;;;;;;5041904;28;20598;-58
2024/02/01 13:18:28;;;;;;;14.43;2.80;;;11.00;99.90;;;;;;5033978;28;20617;-57
2024/02/01 13:20:55;;;;;;;13.30;2.60;;;11.00;99.90;;;;;;5014548;28;20245;-56
2024/02/01 13:23:22;;;;;;;10.57;3.00;;;11.10;99.90;;;;;;5022588;28;20199;-56
2024/02/01 13:25:48;;;;;;;15.77;2.33;;;11.10;99.90;;;;;;5035108;28;20193;-58
2024/02/01 13:28:14;;;;;;;12.83;2.23;;;11.00;99.90;;;;;;5031659;28;20241;-57
2024/02/01 13:30:43;;;;;;;10.70;2.37;;;11.10;99.90;;;;;;5041814;28;20318;-58
2024/02/01 13:33:13;;;;;;;11.23;2.63;;;11.20;99.90;;;;;;5036584;28;20184;-58
2024/02/01 13:35:38;;;;;;;25.33;2.67;;;11.10;99.90;;;;;;5036223;28;20190;-56
2024/02/01 13:38:11;;;;;;;19.73;3.37;;;11.10;99.90;;;;;;5028880;28;20187;-58
2024/02/01 13:40:37;;;;;;;11.10;3.07;;;11.00;99.90;;;;;;5040856;28;20561;-55
2024/02/01 13:43:03;;;;;;;14.10;3.37;;;10.90;99.90;;;;;;5030288;28;20211;-57
2024/02/01 13:45:29;;;;;;;13.50;2.90;;;10.60;99.90;;;;;;5038519;28;20196;-54
2024/02/01 13:47:57;;;;;;;14.10;4.40;;;10.60;99.90;;;;;;5033567;28;20182;-57
2024/02/01 13:50:25;;;;;;;15.80;2.50;;;10.40;99.90;;;;;;5042248;28;20662;-58
2024/02/01 13:52:54;;;;;;;8.63;2.77;;;10.40;99.90;;;;;;5030176;28;20211;-57